Webster, Minnesota
Current Conditions -  °F | °C
As of 5:26 PM on Tuesday 25 Nov 2014 (Local Time) from KLVN Reporting Station
Overcast Overcast  
Wind Chill: 15°   Ceiling: 6000
Heat Index: 23°   Visibility: 10mi
Dew Point: 16°   Wind: 7mph
Humidity: 74%   Direction: 150°SSE
Pressure: 30.02"   Gusts: NA
Location:  44.53°N, 93.35°W
Report Text: KLVN 252326Z AUTO 15006KT 10SM OVC060 M05/M09 A3002 RMK AO2
Loading
Personal Weather Stations






























Interactive Weather Map New forecast layout! Learn more

10-Day Weather Forecast

Advertisements
Track Severe Weather on mobile